sensor_id;sensor_type;location;lat;lon;timestamp;pressure;altitude;pressure_sealevel;temperature;humidity
12973;BME280;6551;51.056;9.466;2023-04-02T00:01:04;96702.38;;;11.94;84.31
12973;BME280;6551;51.056;9.466;2023-04-02T00:08:59;96706.19;;;11.55;84.69
12973;BME280;6551;51.056;9.466;2023-04-02T00:11:45;96708.00;;;11.49;84.46
12973;BME280;6551;51.056;9.466;2023-04-02T00:14:28;96721.16;;;11.39;84.26
12973;BME280;6551;51.056;9.466;2023-04-02T00:16:58;96729.84;;;11.30;84.26
12973;BME280;6551;51.056;9.466;2023-04-02T00:22:20;96729.59;;;11.31;84.79
12973;BME280;6551;51.056;9.466;2023-04-02T00:24:50;96743.78;;;10.98;85.16
12973;BME280;6551;51.056;9.466;2023-04-02T00:27:20;96748.28;;;10.81;85.46
12973;BME280;6551;51.056;9.466;2023-04-02T00:29:53;96749.31;;;10.97;84.85
12973;BME280;6551;51.056;9.466;2023-04-02T00:32:28;96756.94;;;10.72;85.25
12973;BME280;6551;51.056;9.466;2023-04-02T00:34:56;96757.25;;;10.92;84.97
12973;BME280;6551;51.056;9.466;2023-04-02T00:37:30;96759.91;;;10.92;84.58
12973;BME280;6551;51.056;9.466;2023-04-02T00:40:28;96763.78;;;10.84;84.71
12973;BME280;6551;51.056;9.466;2023-04-02T00:42:58;96768.22;;;10.79;84.21
12973;BME280;6551;51.056;9.466;2023-04-02T00:45:31;96781.09;;;10.53;84.68
12973;BME280;6551;51.056;9.466;2023-04-02T00:48:22;96779.59;;;10.57;84.29
12973;BME280;6551;51.056;9.466;2023-04-02T00:50:52;96790.28;;;10.46;84.64
12973;BME280;6551;51.056;9.466;2023-04-02T00:53:28;96795.28;;;10.42;84.65
12973;BME280;6551;51.056;9.466;2023-04-02T00:55:56;96797.19;;;10.30;84.71
12973;BME280;6551;51.056;9.466;2023-04-02T00:58:29;96802.66;;;10.24;84.90
12973;BME280;6551;51.056;9.466;2023-04-02T01:00:58;96801.50;;;10.08;84.93
12973;BME280;6551;51.056;9.466;2023-04-02T01:06:08;96817.34;;;10.54;83.32
12973;BME280;6551;51.056;9.466;2023-04-02T01:14:36;96822.78;;;10.48;83.19
12973;BME280;6551;51.056;9.466;2023-04-02T01:29:52;96851.22;;;10.59;82.33
12973;BME280;6551;51.056;9.466;2023-04-02T01:32:25;96860.34;;;10.63;81.88
12973;BME280;6551;51.056;9.466;2023-04-02T01:34:53;96862.81;;;10.53;81.58
12973;BME280;6551;51.056;9.466;2023-04-02T01:43:48;96875.22;;;9.96;80.31
12973;BME280;6551;51.056;9.466;2023-04-02T01:46:33;96876.72;;;10.15;80.87
12973;BME280;6551;51.056;9.466;2023-04-02T01:49:11;96887.25;;;9.75;81.57
12973;BME280;6551;51.056;9.466;2023-04-02T01:51:44;96885.41;;;9.76;81.97
12973;BME280;6551;51.056;9.466;2023-04-02T01:54:12;96895.78;;;9.77;81.65
12973;BME280;6551;51.056;9.466;2023-04-02T01:56:41;96901.81;;;9.61;81.47
12973;BME280;6551;51.056;9.466;2023-04-02T01:59:09;96901.25;;;9.59;81.49
12973;BME280;6551;51.056;9.466;2023-04-02T02:01:46;96907.25;;;9.78;81.44
12973;BME280;6551;51.056;9.466;2023-04-02T02:04:14;96917.66;;;9.68;81.36
12973;BME280;6551;51.056;9.466;2023-04-02T02:06:42;96920.19;;;9.63;80.92
12973;BME280;6551;51.056;9.466;2023-04-02T02:09:19;96929.31;;;9.67;80.67
12973;BME280;6551;51.056;9.466;2023-04-02T02:11:49;96936.47;;;9.66;81.02
12973;BME280;6551;51.056;9.466;2023-04-02T02:14:25;96930.84;;;9.74;80.71
12973;BME280;6551;51.056;9.466;2023-04-02T02:16:55;96945.63;;;9.93;80.20
12973;BME280;6551;51.056;9.466;2023-04-02T02:19:44;96943.88;;;9.99;79.65
12973;BME280;6551;51.056;9.466;2023-04-02T02:22:31;96942.03;;;9.76;80.27
12973;BME280;6551;51.056;9.466;2023-04-02T02:25:00;96951.72;;;9.59;80.68
12973;BME280;6551;51.056;9.466;2023-04-02T02:30:16;96960.97;;;9.57;80.72
12973;BME280;6551;51.056;9.466;2023-04-02T02:35:37;96973.44;;;9.45;80.37
12973;BME280;6551;51.056;9.466;2023-04-02T02:41:40;96982.09;;;9.40;80.51
12973;BME280;6551;51.056;9.466;2023-04-02T02:46:59;96989.81;;;9.30;79.54
12973;BME280;6551;51.056;9.466;2023-04-02T02:49:51;97001.22;;;9.30;79.86
12973;BME280;6551;51.056;9.466;2023-04-02T02:52:43;97001.06;;;9.55;79.58
12973;BME280;6551;51.056;9.466;2023-04-02T02:55:19;97010.91;;;9.55;79.65
12973;BME280;6551;51.056;9.466;2023-04-02T02:58:18;97029.00;;;9.46;79.98
12973;BME280;6551;51.056;9.466;2023-04-02T03:00:42;97022.47;;;9.30;79.58
12973;BME280;6551;51.056;9.466;2023-04-02T03:03:15;97028.53;;;9.37;80.19
12973;BME280;6551;51.056;9.466;2023-04-02T03:05:42;97034.22;;;8.93;80.32
12973;BME280;6551;51.056;9.466;2023-04-02T03:08:20;97039.44;;;9.00;80.16
12973;BME280;6551;51.056;9.466;2023-04-02T03:11:04;97031.19;;;9.08;79.86
12973;BME280;6551;51.056;9.466;2023-04-02T03:13:37;97044.28;;;8.91;79.83
12973;BME280;6551;51.056;9.466;2023-04-02T03:16:15;97046.84;;;8.43;80.50
12973;BME280;6551;51.056;9.466;2023-04-02T03:19:07;97052.69;;;8.52;81.27
12973;BME280;6551;51.056;9.466;2023-04-02T03:22:02;97059.41;;;8.54;80.52
12973;BME280;6551;51.056;9.466;2023-04-02T03:24:58;97064.38;;;8.44;81.12
12973;BME280;6551;51.056;9.466;2023-04-02T03:27:33;97075.66;;;8.40;81.55
12973;BME280;6551;51.056;9.466;2023-04-02T03:30:29;97082.00;;;8.75;80.26
12973;BME280;6551;51.056;9.466;2023-04-02T03:33:04;97083.84;;;8.38;80.46
12973;BME280;6551;51.056;9.466;2023-04-02T03:35:40;97085.97;;;8.48;80.86
12973;BME280;6551;51.056;9.466;2023-04-02T03:38:26;97098.00;;;8.01;81.81
12973;BME280;6551;51.056;9.466;2023-04-02T03:41:14;97113.38;;;8.17;82.11
12973;BME280;6551;51.056;9.466;2023-04-02T03:43:55;97117.28;;;8.39;81.82
12973;BME280;6551;51.056;9.466;2023-04-02T03:46:43;97116.31;;;8.34;81.47
12973;BME280;6551;51.056;9.466;2023-04-02T03:49:55;97125.78;;;8.48;81.38
12973;BME280;6551;51.056;9.466;2023-04-02T03:52:26;97129.22;;;8.30;81.06
12973;BME280;6551;51.056;9.466;2023-04-02T03:54:56;97128.16;;;8.31;80.76
12973;BME280;6551;51.056;9.466;2023-04-02T03:57:32;97139.88;;;8.66;79.64
12973;BME280;6551;51.056;9.466;2023-04-02T04:00:23;97151.97;;;8.13;80.93
12973;BME280;6551;51.056;9.466;2023-04-02T04:02:57;97142.50;;;7.92;80.85
12973;BME280;6551;51.056;9.466;2023-04-02T04:05:33;97151.28;;;7.93;81.00
12973;BME280;6551;51.056;9.466;2023-04-02T04:08:05;97156.94;;;7.72;81.51
12973;BME280;6551;51.056;9.466;2023-04-02T04:10:33;97153.41;;;7.78;81.27
12973;BME280;6551;51.056;9.466;2023-04-02T04:13:11;97161.09;;;8.17;80.95
12973;BME280;6551;51.056;9.466;2023-04-02T04:15:42;97166.91;;;8.07;80.79
12973;BME280;6551;51.056;9.466;2023-04-02T04:18:58;97176.66;;;8.13;80.92
12973;BME280;6551;51.056;9.466;2023-04-02T04:21:29;97179.91;;;8.09;80.80
12973;BME280;6551;51.056;9.466;2023-04-02T04:24:23;97194.78;;;7.79;81.89
12973;BME280;6551;51.056;9.466;2023-04-02T04:30:18;97201.00;;;8.35;80.78
12973;BME280;6551;51.056;9.466;2023-04-02T04:32:58;97201.00;;;8.35;79.65
12973;BME280;6551;51.056;9.466;2023-04-02T04:35:59;97206.19;;;7.86;80.73
12973;BME280;6551;51.056;9.466;2023-04-02T04:38:37;97222.31;;;7.78;80.62
12973;BME280;6551;51.056;9.466;2023-04-02T04:43:53;97223.13;;;7.34;80.69
12973;BME280;6551;51.056;9.466;2023-04-02T04:46:41;97236.50;;;7.52;80.99
12973;BME280;6551;51.056;9.466;2023-04-02T04:51:57;97239.75;;;7.60;80.38
12973;BME280;6551;51.056;9.466;2023-04-02T04:54:28;97247.41;;;7.75;80.21
12973;BME280;6551;51.056;9.466;2023-04-02T04:57:01;97258.63;;;7.77;80.19
12973;BME280;6551;51.056;9.466;2023-04-02T04:59:35;97259.28;;;7.66;79.84
12973;BME280;6551;51.056;9.466;2023-04-02T05:02:13;97260.53;;;7.50;80.03
12973;BME280;6551;51.056;9.466;2023-04-02T05:04:51;97274.88;;;7.23;81.00
12973;BME280;6551;51.056;9.466;2023-04-02T05:07:32;97280.41;;;7.15;81.55
12973;BME280;6551;51.056;9.466;2023-04-02T05:10:26;97281.59;;;7.19;80.43
12973;BME280;6551;51.056;9.466;2023-04-02T05:13:24;97284.69;;;7.16;80.63
12973;BME280;6551;51.056;9.466;2023-04-02T05:19:20;97292.56;;;7.36;79.89
12973;BME280;6551;51.056;9.466;2023-04-02T05:22:41;97308.16;;;7.77;79.43
12973;BME280;6551;51.056;9.466;2023-04-02T05:28:11;97321.75;;;7.10;80.95
12973;BME280;6551;51.056;9.466;2023-04-02T05:31:07;97326.66;;;6.80;81.55
12973;BME280;6551;51.056;9.466;2023-04-02T05:33:38;97328.06;;;6.82;81.40
12973;BME280;6551;51.056;9.466;2023-04-02T05:36:11;97335.19;;;6.82;81.38
12973;BME280;6551;51.056;9.466;2023-04-02T05:38:47;97342.09;;;6.70;82.06
12973;BME280;6551;51.056;9.466;2023-04-02T05:44:15;97349.63;;;6.92;82.37
12973;BME280;6551;51.056;9.466;2023-04-02T05:49:54;97352.50;;;6.91;81.47
12973;BME280;6551;51.056;9.466;2023-04-02T05:52:31;97365.31;;;6.81;81.77
12973;BME280;6551;51.056;9.466;2023-04-02T05:57:53;97374.47;;;6.98;81.78
12973;BME280;6551;51.056;9.466;2023-04-02T06:03:23;97389.75;;;7.02;81.37
12973;BME280;6551;51.056;9.466;2023-04-02T06:05:58;97392.97;;;6.65;81.90
12973;BME280;6551;51.056;9.466;2023-04-02T06:09:00;97400.91;;;6.78;82.12
12973;BME280;6551;51.056;9.466;2023-04-02T06:11:40;97410.88;;;6.63;81.95
12973;BME280;6551;51.056;9.466;2023-04-02T06:14:12;97403.53;;;6.59;81.32
12973;BME280;6551;51.056;9.466;2023-04-02T06:16:38;97422.22;;;6.44;81.53
12973;BME280;6551;51.056;9.466;2023-04-02T06:19:21;97422.81;;;6.53;81.48
12973;BME280;6551;51.056;9.466;2023-04-02T06:21:52;97431.41;;;6.61;81.96
12973;BME280;6551;51.056;9.466;2023-04-02T06:24:26;97445.66;;;6.67;81.26
12973;BME280;6551;51.056;9.466;2023-04-02T06:27:00;97448.34;;;6.73;81.29
12973;BME280;6551;51.056;9.466;2023-04-02T06:29:33;97459.13;;;6.78;80.64
12973;BME280;6551;51.056;9.466;2023-04-02T06:32:06;97459.00;;;6.99;80.10
12973;BME280;6551;51.056;9.466;2023-04-02T06:34:37;97466.09;;;6.99;79.69
12973;BME280;6551;51.056;9.466;2023-04-02T06:37:21;97463.81;;;6.76;80.99
12973;BME280;6551;51.056;9.466;2023-04-02T06:39:50;97467.28;;;6.77;81.10
12973;BME280;6551;51.056;9.466;2023-04-02T06:42:26;97478.47;;;6.79;80.51
12973;BME280;6551;51.056;9.466;2023-04-02T06:44:55;97485.97;;;6.69;80.73
12973;BME280;6551;51.056;9.466;2023-04-02T06:47:40;97492.31;;;6.74;80.51
12973;BME280;6551;51.056;9.466;2023-04-02T06:50:18;97490.44;;;6.68;79.99
12973;BME280;6551;51.056;9.466;2023-04-02T06:52:55;97508.34;;;6.66;79.83
12973;BME280;6551;51.056;9.466;2023-04-02T06:56:03;97518.59;;;6.82;78.68
12973;BME280;6551;51.056;9.466;2023-04-02T06:58:30;97522.19;;;6.68;78.53
12973;BME280;6551;51.056;9.466;2023-04-02T07:00:56;97524.81;;;6.62;78.59
12973;BME280;6551;51.056;9.466;2023-04-02T07:03:30;97541.53;;;6.69;78.87
12973;BME280;6551;51.056;9.466;2023-04-02T07:05:58;97530.81;;;6.90;78.61
12973;BME280;6551;51.056;9.466;2023-04-02T07:08:26;97544.41;;;6.74;78.87
12973;BME280;6551;51.056;9.466;2023-04-02T07:10:54;97539.53;;;6.84;78.31
12973;BME280;6551;51.056;9.466;2023-04-02T07:13:24;97554.22;;;6.86;78.76
12973;BME280;6551;51.056;9.466;2023-04-02T07:15:53;97559.88;;;6.77;78.72
12973;BME280;6551;51.056;9.466;2023-04-02T07:18:32;97554.06;;;6.54;78.67
12973;BME280;6551;51.056;9.466;2023-04-02T07:20:59;97562.38;;;6.44;79.22
12973;BME280;6551;51.056;9.466;2023-04-02T07:23:29;97580.78;;;6.65;78.89
12973;BME280;6551;51.056;9.466;2023-04-02T07:25:56;97570.09;;;6.45;78.95
12973;BME280;6551;51.056;9.466;2023-04-02T07:28:24;97596.44;;;6.67;78.85
12973;BME280;6551;51.056;9.466;2023-04-02T07:30:54;97580.28;;;6.48;78.55
12973;BME280;6551;51.056;9.466;2023-04-02T07:33:27;97580.94;;;6.57;78.63
12973;BME280;6551;51.056;9.466;2023-04-02T07:35:56;97597.09;;;6.69;78.52
12973;BME280;6551;51.056;9.466;2023-04-02T07:38:23;97603.00;;;6.71;78.23
12973;BME280;6551;51.056;9.466;2023-04-02T07:40:50;97613.03;;;6.82;78.30
12973;BME280;6551;51.056;9.466;2023-04-02T07:43:16;97610.13;;;6.70;77.62
12973;BME280;6551;51.056;9.466;2023-04-02T07:45:41;97615.63;;;6.75;77.35
12973;BME280;6551;51.056;9.466;2023-04-02T07:48:10;97623.78;;;6.80;76.96
12973;BME280;6551;51.056;9.466;2023-04-02T07:50:37;97624.94;;;7.05;76.84
12973;BME280;6551;51.056;9.466;2023-04-02T07:53:03;97630.03;;;7.07;76.67
12973;BME280;6551;51.056;9.466;2023-04-02T07:55:31;97645.16;;;7.20;76.87
12973;BME280;6551;51.056;9.466;2023-04-02T07:57:57;97637.72;;;6.61;76.50
12973;BME280;6551;51.056;9.466;2023-04-02T08:00:26;97639.81;;;6.66;77.25
12973;BME280;6551;51.056;9.466;2023-04-02T08:02:55;97655.84;;;6.64;76.94
12973;BME280;6551;51.056;9.466;2023-04-02T08:05:22;97655.16;;;6.83;77.17
12973;BME280;6551;51.056;9.466;2023-04-02T08:07:56;97670.38;;;6.75;78.00
12973;BME280;6551;51.056;9.466;2023-04-02T08:10:23;97676.88;;;6.72;76.97
12973;BME280;6551;51.056;9.466;2023-04-02T08:12:51;97675.38;;;6.91;76.60
12973;BME280;6551;51.056;9.466;2023-04-02T08:15:17;97676.03;;;6.37;76.82
12973;BME280;6551;51.056;9.466;2023-04-02T08:17:45;97677.69;;;6.45;77.76
12973;BME280;6551;51.056;9.466;2023-04-02T08:20:20;97688.38;;;6.58;77.67
12973;BME280;6551;51.056;9.466;2023-04-02T08:22:49;97698.03;;;6.72;77.29
12973;BME280;6551;51.056;9.466;2023-04-02T08:25:15;97693.94;;;6.63;76.89
12973;BME280;6551;51.056;9.466;2023-04-02T08:27:45;97705.50;;;6.62;77.02
12973;BME280;6551;51.056;9.466;2023-04-02T08:30:12;97710.25;;;5.97;77.23
12973;BME280;6551;51.056;9.466;2023-04-02T08:32:38;97717.41;;;6.24;76.85
12973;BME280;6551;51.056;9.466;2023-04-02T08:35:12;97715.81;;;6.29;77.31
12973;BME280;6551;51.056;9.466;2023-04-02T08:37:39;97724.22;;;6.33;77.01
12973;BME280;6551;51.056;9.466;2023-04-02T08:40:09;97725.66;;;6.35;77.45
12973;BME280;6551;51.056;9.466;2023-04-02T08:43:20;97731.75;;;6.15;77.36
12973;BME280;6551;51.056;9.466;2023-04-02T08:46:19;97733.41;;;6.16;77.06
12973;BME280;6551;51.056;9.466;2023-04-02T08:49:07;97737.38;;;6.05;76.98
12973;BME280;6551;51.056;9.466;2023-04-02T08:51:37;97747.72;;;6.07;77.23
12973;BME280;6551;51.056;9.466;2023-04-02T08:54:28;97756.09;;;6.31;77.24
12973;BME280;6551;51.056;9.466;2023-04-02T08:57:10;97756.50;;;6.50;76.34
12973;BME280;6551;51.056;9.466;2023-04-02T08:59:41;97759.25;;;6.20;76.49
12973;BME280;6551;51.056;9.466;2023-04-02T09:02:45;97769.19;;;6.61;76.31
12973;BME280;6551;51.056;9.466;2023-04-02T09:05:30;97769.38;;;6.59;75.71
12973;BME280;6551;51.056;9.466;2023-04-02T09:08:00;97778.50;;;6.57;75.43
12973;BME280;6551;51.056;9.466;2023-04-02T09:13:39;97783.50;;;6.45;76.15
12973;BME280;6551;51.056;9.466;2023-04-02T09:16:09;97779.22;;;6.44;76.51
12973;BME280;6551;51.056;9.466;2023-04-02T09:18:37;97784.38;;;6.31;77.01
12973;BME280;6551;51.056;9.466;2023-04-02T09:23:56;97802.50;;;6.34;77.68
12973;BME280;6551;51.056;9.466;2023-04-02T09:26:25;97810.75;;;6.45;77.16
12973;BME280;6551;51.056;9.466;2023-04-02T09:28:59;97814.78;;;6.63;76.41
12973;BME280;6551;51.056;9.466;2023-04-02T09:31:38;97822.09;;;6.39;77.76
12973;BME280;6551;51.056;9.466;2023-04-02T09:34:34;97825.50;;;6.55;77.72
12973;BME280;6551;51.056;9.466;2023-04-02T09:37:21;97827.94;;;6.56;76.67
12973;BME280;6551;51.056;9.466;2023-04-02T09:40:32;97840.34;;;6.56;76.71
12973;BME280;6551;51.056;9.466;2023-04-02T09:43:17;97841.00;;;6.58;76.41
12973;BME280;6551;51.056;9.466;2023-04-02T09:48:35;97836.34;;;6.60;76.78
12973;BME280;6551;51.056;9.466;2023-04-02T09:51:16;97850.75;;;6.57;75.85
12973;BME280;6551;51.056;9.466;2023-04-02T09:56:44;97859.56;;;6.64;76.44
12973;BME280;6551;51.056;9.466;2023-04-02T09:59:18;97864.72;;;6.72;75.44
12973;BME280;6551;51.056;9.466;2023-04-02T10:01:59;97858.13;;;6.62;75.70
12973;BME280;6551;51.056;9.466;2023-04-02T10:10:29;97882.38;;;6.65;75.27
12973;BME280;6551;51.056;9.466;2023-04-02T10:16:40;97899.94;;;6.73;74.83
12973;BME280;6551;51.056;9.466;2023-04-02T10:21:57;97894.66;;;6.52;75.02
12973;BME280;6551;51.056;9.466;2023-04-02T10:24:26;97904.03;;;6.54;74.89
12973;BME280;6551;51.056;9.466;2023-04-02T10:27:06;97911.44;;;6.80;74.60
12973;BME280;6551;51.056;9.466;2023-04-02T10:33:17;97925.69;;;6.64;73.17
12973;BME280;6551;51.056;9.466;2023-04-02T10:36:10;97924.78;;;6.93;73.12
12973;BME280;6551;51.056;9.466;2023-04-02T10:40:09;97922.59;;;6.96;72.43
12973;BME280;6551;51.056;9.466;2023-04-02T10:51:43;97939.97;;;6.84;72.88
12973;BME280;6551;51.056;9.466;2023-04-02T10:57:17;97950.56;;;6.48;73.39
12973;BME280;6551;51.056;9.466;2023-04-02T10:59:59;97949.75;;;6.48;73.17
12973;BME280;6551;51.056;9.466;2023-04-02T11:03:09;97961.31;;;6.47;72.98
12973;BME280;6551;51.056;9.466;2023-04-02T11:05:58;97961.00;;;6.71;73.48
12973;BME280;6551;51.056;9.466;2023-04-02T11:08:43;97971.94;;;6.83;72.41
12973;BME280;6551;51.056;9.466;2023-04-02T11:11:40;97975.91;;;6.93;72.14
12973;BME280;6551;51.056;9.466;2023-04-02T11:14:29;97979.28;;;7.08;71.98
12973;BME280;6551;51.056;9.466;2023-04-02T11:16:59;97974.25;;;7.14;71.82
12973;BME280;6551;51.056;9.466;2023-04-02T11:19:32;97982.13;;;7.28;71.77
12973;BME280;6551;51.056;9.466;2023-04-02T11:22:24;97985.53;;;7.01;71.16
12973;BME280;6551;51.056;9.466;2023-04-02T11:24:54;97990.47;;;6.68;71.73
12973;BME280;6551;51.056;9.466;2023-04-02T11:27:31;97992.75;;;6.71;72.10
12973;BME280;6551;51.056;9.466;2023-04-02T11:32:45;98009.72;;;6.77;70.74
12973;BME280;6551;51.056;9.466;2023-04-02T11:40:59;98008.66;;;6.92;70.67
12973;BME280;6551;51.056;9.466;2023-04-02T11:46:38;98015.16;;;7.11;70.02
12973;BME280;6551;51.056;9.466;2023-04-02T11:49:37;98025.25;;;7.01;70.68
12973;BME280;6551;51.056;9.466;2023-04-02T11:52:18;98019.34;;;6.99;71.19
12973;BME280;6551;51.056;9.466;2023-04-02T11:55:18;98032.41;;;6.86;72.22
12973;BME280;6551;51.056;9.466;2023-04-02T11:58:21;98031.84;;;6.90;71.14
12973;BME280;6551;51.056;9.466;2023-04-02T12:07:31;98052.44;;;6.59;71.60
12973;BME280;6551;51.056;9.466;2023-04-02T12:10:55;98061.47;;;6.50;71.94
12973;BME280;6551;51.056;9.466;2023-04-02T12:16:10;98075.16;;;6.68;71.29
12973;BME280;6551;51.056;9.466;2023-04-02T12:18:48;98080.50;;;6.75;71.25
12973;BME280;6551;51.056;9.466;2023-04-02T12:21:23;98084.91;;;6.82;70.74
12973;BME280;6551;51.056;9.466;2023-04-02T12:23:53;98089.72;;;6.79;70.57
12973;BME280;6551;51.056;9.466;2023-04-02T12:26:29;98087.50;;;6.97;70.05
12973;BME280;6551;51.056;9.466;2023-04-02T12:29:27;98094.44;;;6.98;68.74
12973;BME280;6551;51.056;9.466;2023-04-02T12:31:59;98098.91;;;7.12;68.26
12973;BME280;6551;51.056;9.466;2023-04-02T12:34:28;98104.25;;;6.83;68.13
12973;BME280;6551;51.056;9.466;2023-04-02T12:37:00;98103.44;;;6.82;68.67
12973;BME280;6551;51.056;9.466;2023-04-02T12:39:32;98105.97;;;6.61;68.45
12973;BME280;6551;51.056;9.466;2023-04-02T12:41:58;98107.34;;;6.57;68.44
12973;BME280;6551;51.056;9.466;2023-04-02T12:44:28;98111.09;;;6.77;68.30
12973;BME280;6551;51.056;9.466;2023-04-02T12:46:56;98103.78;;;6.79;67.51
12973;BME280;6551;51.056;9.466;2023-04-02T12:49:39;98107.69;;;6.83;67.97
12973;BME280;6551;51.056;9.466;2023-04-02T12:52:13;98113.34;;;6.95;68.27
12973;BME280;6551;51.056;9.466;2023-04-02T12:54:53;98115.59;;;7.27;66.98
12973;BME280;6551;51.056;9.466;2023-04-02T13:00:00;98119.81;;;7.07;66.41
12973;BME280;6551;51.056;9.466;2023-04-02T13:02:41;98126.22;;;7.34;66.07
12973;BME280;6551;51.056;9.466;2023-04-02T13:05:10;98131.63;;;7.40;64.86
12973;BME280;6551;51.056;9.466;2023-04-02T13:07:38;98130.03;;;7.46;64.11
12973;BME280;6551;51.056;9.466;2023-04-02T13:10:26;98127.69;;;7.36;64.09
12973;BME280;6551;51.056;9.466;2023-04-02T13:13:00;98140.69;;;7.52;64.39
12973;BME280;6551;51.056;9.466;2023-04-02T13:15:33;98130.81;;;7.61;64.19
12973;BME280;6551;51.056;9.466;2023-04-02T13:18:19;98135.34;;;7.67;63.75
12973;BME280;6551;51.056;9.466;2023-04-02T13:21:20;98129.94;;;7.75;63.63
12973;BME280;6551;51.056;9.466;2023-04-02T13:23:48;98127.28;;;7.54;63.25
12973;BME280;6551;51.056;9.466;2023-04-02T13:26:19;98140.91;;;7.51;62.94
12973;BME280;6551;51.056;9.466;2023-04-02T13:31:34;98138.63;;;7.69;62.22
12973;BME280;6551;51.056;9.466;2023-04-02T13:34:00;98137.19;;;7.66;61.29
12973;BME280;6551;51.056;9.466;2023-04-02T13:36:27;98139.56;;;7.61;61.93
12973;BME280;6551;51.056;9.466;2023-04-02T13:38:54;98138.16;;;7.80;62.45
12973;BME280;6551;51.056;9.466;2023-04-02T13:44:32;98136.56;;;7.86;60.68
12973;BME280;6551;51.056;9.466;2023-04-02T13:46:59;98146.97;;;7.87;61.93
12973;BME280;6551;51.056;9.466;2023-04-02T13:49:27;98144.09;;;7.82;61.37
12973;BME280;6551;51.056;9.466;2023-04-02T13:51:56;98144.88;;;8.04;61.55
12973;BME280;6551;51.056;9.466;2023-04-02T13:54:50;98151.81;;;7.84;61.51
12973;BME280;6551;51.056;9.466;2023-04-02T13:57:17;98153.72;;;7.90;61.62
12973;BME280;6551;51.056;9.466;2023-04-02T13:59:43;98146.84;;;7.74;61.20
12973;BME280;6551;51.056;9.466;2023-04-02T14:02:16;98158.38;;;7.66;61.57
12973;BME280;6551;51.056;9.466;2023-04-02T14:04:48;98168.44;;;7.71;61.68
12973;BME280;6551;51.056;9.466;2023-04-02T14:07:51;98173.63;;;7.79;61.75
12973;BME280;6551;51.056;9.466;2023-04-02T14:11:21;98168.25;;;7.94;60.20
12973;BME280;6551;51.056;9.466;2023-04-02T14:14:36;98167.72;;;7.62;59.46
12973;BME280;6551;51.056;9.466;2023-04-02T14:17:28;98180.38;;;7.82;61.39
12973;BME280;6551;51.056;9.466;2023-04-02T14:20:30;98179.22;;;7.70;61.52
12973;BME280;6551;51.056;9.466;2023-04-02T14:32:28;98180.97;;;7.62;62.06
12973;BME280;6551;51.056;9.466;2023-04-02T14:35:05;98190.19;;;7.66;61.58
12973;BME280;6551;51.056;9.466;2023-04-02T14:40:47;98197.75;;;7.70;62.80
12973;BME280;6551;51.056;9.466;2023-04-02T14:43:44;98193.38;;;7.41;63.01
12973;BME280;6551;51.056;9.466;2023-04-02T14:46:11;98198.25;;;6.93;63.71
12973;BME280;6551;51.056;9.466;2023-04-02T14:49:23;98201.78;;;7.30;63.82
12973;BME280;6551;51.056;9.466;2023-04-02T14:52:02;98202.44;;;6.88;63.78
12973;BME280;6551;51.056;9.466;2023-04-02T14:55:17;98213.69;;;7.04;65.31
12973;BME280;6551;51.056;9.466;2023-04-02T14:57:49;98217.78;;;7.07;65.29
12973;BME280;6551;51.056;9.466;2023-04-02T15:00:45;98229.72;;;7.18;64.59
12973;BME280;6551;51.056;9.466;2023-04-02T15:03:28;98222.25;;;7.06;64.42
12973;BME280;6551;51.056;9.466;2023-04-02T15:06:10;98228.44;;;7.14;64.63
12973;BME280;6551;51.056;9.466;2023-04-02T15:09:01;98234.09;;;7.25;63.94
12973;BME280;6551;51.056;9.466;2023-04-02T15:11:41;98231.38;;;7.19;64.96
12973;BME280;6551;51.056;9.466;2023-04-02T15:14:20;98236.03;;;7.02;64.95
12973;BME280;6551;51.056;9.466;2023-04-02T15:16:55;98247.81;;;6.99;64.71
12973;BME280;6551;51.056;9.466;2023-04-02T15:19:22;98251.63;;;6.97;64.72
12973;BME280;6551;51.056;9.466;2023-04-02T15:22:18;98248.09;;;7.04;65.38
12973;BME280;6551;51.056;9.466;2023-04-02T15:25:23;98250.53;;;7.06;63.70
12973;BME280;6551;51.056;9.466;2023-04-02T15:28:33;98259.03;;;7.01;64.27
12973;BME280;6551;51.056;9.466;2023-04-02T15:31:03;98258.03;;;7.02;63.60
12973;BME280;6551;51.056;9.466;2023-04-02T15:34:31;98265.91;;;7.11;63.67
12973;BME280;6551;51.056;9.466;2023-04-02T15:37:32;98262.06;;;7.13;64.08
12973;BME280;6551;51.056;9.466;2023-04-02T15:43:35;98275.00;;;7.08;63.58
12973;BME280;6551;51.056;9.466;2023-04-02T15:49:49;98273.91;;;7.02;62.63
12973;BME280;6551;51.056;9.466;2023-04-02T15:52:35;98275.84;;;6.94;63.52
12973;BME280;6551;51.056;9.466;2023-04-02T15:55:27;98277.94;;;6.98;62.89
12973;BME280;6551;51.056;9.466;2023-04-02T15:58:42;98283.78;;;7.08;63.04
12973;BME280;6551;51.056;9.466;2023-04-02T16:01:35;98285.16;;;7.19;62.57
12973;BME280;6551;51.056;9.466;2023-04-02T16:10:32;98286.78;;;6.91;63.39
12973;BME280;6551;51.056;9.466;2023-04-02T16:12:59;98289.72;;;6.96;63.37
12973;BME280;6551;51.056;9.466;2023-04-02T16:15:45;98303.84;;;7.03;62.93
12973;BME280;6551;51.056;9.466;2023-04-02T16:18:43;98298.47;;;6.96;62.20
12973;BME280;6551;51.056;9.466;2023-04-02T16:21:22;98305.59;;;6.96;61.57
12973;BME280;6551;51.056;9.466;2023-04-02T16:23:49;98309.44;;;6.93;61.86
12973;BME280;6551;51.056;9.466;2023-04-02T16:33:45;98321.88;;;7.37;60.85
12973;BME280;6551;51.056;9.466;2023-04-02T16:40:01;98335.88;;;7.45;59.74
12973;BME280;6551;51.056;9.466;2023-04-02T16:42:40;98334.16;;;7.00;60.34
12973;BME280;6551;51.056;9.466;2023-04-02T16:48:38;98338.88;;;7.42;60.26
12973;BME280;6551;51.056;9.466;2023-04-02T16:54:14;98346.25;;;7.47;58.93
12973;BME280;6551;51.056;9.466;2023-04-02T17:00:40;98349.41;;;7.65;59.12
12973;BME280;6551;51.056;9.466;2023-04-02T17:12:21;98359.06;;;7.87;59.01
12973;BME280;6551;51.056;9.466;2023-04-02T17:14:59;98365.56;;;7.55;59.56
12973;BME280;6551;51.056;9.466;2023-04-02T17:17:29;98374.78;;;7.45;60.03
12973;BME280;6551;51.056;9.466;2023-04-02T17:20:00;98372.25;;;7.51;60.59
12973;BME280;6551;51.056;9.466;2023-04-02T17:22:27;98376.06;;;7.49;60.34
12973;BME280;6551;51.056;9.466;2023-04-02T17:25:03;98376.44;;;7.46;60.08
12973;BME280;6551;51.056;9.466;2023-04-02T17:27:38;98383.75;;;7.58;60.36
12973;BME280;6551;51.056;9.466;2023-04-02T17:30:42;98394.47;;;7.80;59.72
12973;BME280;6551;51.056;9.466;2023-04-02T17:33:17;98389.78;;;7.82;59.84
12973;BME280;6551;51.056;9.466;2023-04-02T17:39:07;98400.28;;;8.04;59.71
12973;BME280;6551;51.056;9.466;2023-04-02T17:45:07;98405.69;;;7.96;59.70
12973;BME280;6551;51.056;9.466;2023-04-02T17:57:09;98413.56;;;8.04;59.74